Date,TemperatureHighF,TemperatureAvgF,TemperatureLowF,DewpointHighF,DewpointAvgF,DewpointLowF,HumidityHigh,HumidityAvg,HumidityLow,PressureMaxIn,PressureMinIn,WindSpeedMaxMPH,WindSpeedAvgMPH,GustSpeedMaxMPH,PrecipitationSumIn
2013-7-1,76.2,67.8,64.4,67.3,63.2,61.1,91,85,68,29.81,29.68,3,0,13,0.08
2013-7-2,80.6,70.4,65.5,67.3,64.5,63.4,93,83,61,29.88,29.79,1,0,10,0.04
2013-7-3,84.5,76.1,68.1,69.7,67.5,65.4,92,76,56,30.00,29.90,9,0,9,0.09
2013-7-4,77.6,71.9,68.4,68.7,66.8,65.3,93,84,69,30.06,29.98,7,0,7,0.03
2013-7-5,77.2,70.3,67.6,69.7,66.8,65.5,93,89,75,30.02,29.95,8,0,9,0.33
2013-7-6,82.4,74.4,67.9,70.5,68.3,66.1,94,82,63,30.01,29.87,1,0,7,0.00
2013-7-7,78.2,72.1,67.0,68.0,64.6,62.7,88,78,62,29.96,29.86,1,0,9,0.01
2013-7-8,83.0,72.0,61.7,69.9,64.7,59.0,92,79,60,29.97,29.90,1,0,12,0.18
2013-7-9,84.3,74.5,67.6,75.6,70.2,65.2,94,87,69,29.93,29.80,21,0,22,0.41
2013-7-10,85.5,73.7,65.0,76.3,69.4,63.2,95,87,72,29.84,29.63,21,0,21,1.74
2013-7-11,76.5,68.6,59.3,63.6,58.8,50.9,96,73,42,29.89,29.77,16,1,16,0.01
2013-7-12,77.2,67.1,56.0,63.9,58.7,53.7,94,76,52,29.96,29.88,13,0,14,0.00
2013-7-13,83.2,72.6,60.5,67.1,62.7,57.1,90,73,52,30.07,29.95,11,0,12,0.00
2013-7-14,87.8,77.7,68.1,70.8,67.2,64.1,89,71,52,30.11,30.04,8,0,9,0.00
2013-7-15,91.0,79.9,68.8,71.8,68.7,66.1,92,71,47,30.18,30.09,6,0,7,0.00
2013-7-16,90.1,78.1,69.6,73.7,70.4,67.5,94,79,53,30.17,30.11,18,1,19,0.00
2013-7-17,91.3,81.3,71.2,73.6,71.6,69.4,94,75,50,30.14,30.00,1,0,11,0.00
2013-7-18,92.5,86.3,72.4,75.3,72.4,70.0,93,64,50,30.03,29.87,12,0,12,0.00
2013-7-19,89.0,79.5,72.0,73.9,71.0,68.9,91,77,56,29.87,29.74,14,1,14,0.00
2013-7-20,79.5,73.4,70.5,69.2,67.6,65.6,91,82,67,29.78,29.67,2,0,16,0.03
2013-7-21,83.0,74.1,69.3,68.3,67.0,64.7,94,80,55,29.82,29.75,4,0,15,0.00
2013-7-22,73.7,68.8,65.6,70.6,65.9,62.8,93,90,85,29.81,29.63,1,0,9,0.63
2013-7-23,79.8,69.0,63.9,70.3,65.0,62.1,95,88,68,29.66,29.54,10,0,11,0.15
2013-7-24,70.3,64.8,56.6,64.4,54.1,50.0,93,69,51,29.89,29.63,13,1,16,0.00
2013-7-25,64.2,55.5,50.1,53.6,50.3,47.9,92,83,69,29.95,29.89,8,0,8,0.00
2013-7-26,79.0,72.2,50.8,59.0,55.6,48.6,92,58,37,29.96,29.84,8,0,8,0.00
2013-7-27,70.1,65.2,61.0,65.8,61.1,57.3,90,87,79,29.84,29.69,9,0,12,0.08
2013-7-28,63.4,63.4,63.4,60.4,60.4,60.4,90,90,90,29.71,29.71,0,0,0,0.00
2013-7-29,71.4,62.2,53.2,56.1,52.2,50.0,89,71,50,30.05,29.89,2,0,13,0.00
2013-7-30,77.0,64.7,51.8,59.1,54.6,49.8,95,73,47,30.09,30.01,1,0,8,0.00